createdAt,value
2023-03-27T00:00:53.000Z,92.08
2023-03-27T00:01:50.000Z,91.51
2023-03-27T00:02:50.000Z,91.21
2023-03-27T00:03:51.000Z,91.80
2023-03-27T00:04:52.000Z,91.74
2023-03-27T00:06:03.000Z,92.47
2023-03-27T00:06:53.000Z,92.34
2023-03-27T00:07:52.000Z,92.36
2023-03-27T00:08:51.000Z,92.32
2023-03-27T00:09:51.000Z,91.74
2023-03-27T00:10:51.000Z,90.04
2023-03-27T00:11:51.000Z,90.63
2023-03-27T00:12:50.000Z,88.90
2023-03-27T00:13:52.000Z,88.07
2023-03-27T00:14:50.000Z,89.57
2023-03-27T00:15:54.000Z,89.59
2023-03-27T00:16:50.000Z,89.61
2023-03-27T00:17:51.000Z,88.76
2023-03-27T00:18:52.000Z,89.03
2023-03-27T00:19:50.000Z,88.62
2023-03-27T00:20:50.000Z,88.37
2023-03-27T00:21:51.000Z,88.84
2023-03-27T00:22:54.000Z,89.16
2023-03-27T00:23:50.000Z,89.42
2023-03-27T00:24:50.000Z,89.85
2023-03-27T00:25:52.000Z,90.52
2023-03-27T00:26:50.000Z,90.16
2023-03-27T00:27:51.000Z,90.18
2023-03-27T00:28:51.000Z,90.39
2023-03-27T00:29:52.000Z,90.24
2023-03-27T00:30:51.000Z,90.16
2023-03-27T00:31:50.000Z,90.49
2023-03-27T00:32:50.000Z,91.06
2023-03-27T00:33:50.000Z,90.71
2023-03-27T00:34:50.000Z,90.83
2023-03-27T00:35:50.000Z,91.16
2023-03-27T00:36:51.000Z,91.62
2023-03-27T00:37:50.000Z,91.83
2023-03-27T00:38:51.000Z,91.94
2023-03-27T00:39:50.000Z,91.84
2023-03-27T00:40:52.000Z,92.25
2023-03-27T00:41:50.000Z,92.35
2023-03-27T00:42:51.000Z,92.18
2023-03-27T00:43:52.000Z,91.63
2023-03-27T00:44:50.000Z,90.94
2023-03-27T00:45:58.000Z,91.17
2023-03-27T00:46:53.000Z,89.82
2023-03-27T00:47:59.000Z,89.68
2023-03-27T00:48:50.000Z,89.53
2023-03-27T00:49:50.000Z,89.08
2023-03-27T00:50:51.000Z,88.86
2023-03-27T00:51:51.000Z,88.98
2023-03-27T00:52:55.000Z,88.83
2023-03-27T00:53:52.000Z,89.14
2023-03-27T00:54:50.000Z,89.02
2023-03-27T00:55:55.000Z,87.90
2023-03-27T00:56:54.000Z,88.31
2023-03-27T00:57:57.000Z,88.39
2023-03-27T00:58:58.000Z,86.47
2023-03-27T00:59:52.000Z,87.40
2023-03-27T01:00:52.000Z,87.59
2023-03-27T01:01:51.000Z,87.84
2023-03-27T01:02:50.000Z,87.85
2023-03-27T01:03:51.000Z,88.04
2023-03-27T01:04:51.000Z,88.33
2023-03-27T01:05:52.000Z,87.06
2023-03-27T01:06:53.000Z,86.71
2023-03-27T01:07:51.000Z,86.82
2023-03-27T01:08:50.000Z,86.62
2023-03-27T01:09:50.000Z,86.05
2023-03-27T01:11:05.000Z,86.25
2023-03-27T01:12:00.000Z,86.57
2023-03-27T01:13:05.000Z,86.88
2023-03-27T01:14:05.000Z,86.38
2023-03-27T01:15:00.000Z,86.65
2023-03-27T01:16:10.000Z,86.92
2023-03-27T01:17:03.000Z,87.08
2023-03-27T01:18:00.000Z,86.60
2023-03-27T01:19:06.000Z,86.43
2023-03-27T01:20:12.000Z,85.55
2023-03-27T01:21:10.000Z,86.29
2023-03-27T01:22:00.000Z,86.33
2023-03-27T01:23:06.000Z,86.10
2023-03-27T01:24:24.000Z,86.54
2023-03-27T01:25:24.000Z,86.59
2023-03-27T01:26:00.000Z,86.70
2023-03-27T01:27:02.000Z,86.30
2023-03-27T01:28:01.000Z,86.34
2023-03-27T01:29:01.000Z,86.32
2023-03-27T01:30:02.000Z,86.41
2023-03-27T01:31:23.000Z,86.64
2023-03-27T01:32:01.000Z,86.56
2023-03-27T01:33:14.000Z,86.54
2023-03-27T01:34:20.000Z,86.54
2023-03-27T01:35:11.000Z,86.94
2023-03-27T01:36:11.000Z,86.45
2023-03-27T01:37:13.000Z,86.96
2023-03-27T01:38:08.000Z,86.19
2023-03-27T01:39:15.000Z,86.89
2023-03-27T01:40:01.000Z,87.22
2023-03-27T01:41:05.000Z,86.33
2023-03-27T01:42:04.000Z,85.67
2023-03-27T01:43:01.000Z,86.09
2023-03-27T01:44:40.000Z,85.93
2023-03-27T01:45:36.000Z,86.26
2023-03-27T01:46:40.000Z,85.51
2023-03-27T01:47:13.000Z,85.63
2023-03-27T01:48:01.000Z,86.20
2023-03-27T01:48:59.000Z,85.89
2023-03-27T01:49:59.000Z,85.26
2023-03-27T01:50:55.000Z,85.11
2023-03-27T01:51:58.000Z,85.48
2023-03-27T01:52:57.000Z,85.50
2023-03-27T01:53:59.000Z,85.17
2023-03-27T01:54:58.000Z,85.67
2023-03-27T01:56:00.000Z,83.33
2023-03-27T01:57:02.000Z,81.95
2023-03-27T01:57:58.000Z,83.18
2023-03-27T01:59:01.000Z,83.32
2023-03-27T01:59:58.000Z,81.87
2023-03-27T02:00:55.000Z,82.26
2023-03-27T02:01:59.000Z,81.42
2023-03-27T02:02:58.000Z,81.75
2023-03-27T02:03:55.000Z,81.41
2023-03-27T02:04:57.000Z,81.16
2023-03-27T02:05:59.000Z,81.37
2023-03-27T02:06:55.000Z,82.02
2023-03-27T02:07:57.000Z,81.66
2023-03-27T02:08:59.000Z,79.50
2023-03-27T02:09:56.000Z,80.63
2023-03-27T02:10:56.000Z,78.05
2023-03-27T02:12:08.000Z,78.54
2023-03-27T02:13:07.000Z,79.27
2023-03-27T02:14:04.000Z,77.67
2023-03-27T02:14:57.000Z,77.92
2023-03-27T02:15:53.000Z,79.40
2023-03-27T02:16:56.000Z,78.04
2023-03-27T02:18:03.000Z,78.03
2023-03-27T02:18:59.000Z,78.09
2023-03-27T02:20:01.000Z,77.81
2023-03-27T02:20:50.000Z,78.46
2023-03-27T02:21:50.000Z,77.66
2023-03-27T02:22:52.000Z,77.54
2023-03-27T02:23:52.000Z,78.01
2023-03-27T02:24:54.000Z,77.93
2023-03-27T02:25:51.000Z,78.01
2023-03-27T02:26:59.000Z,78.94
2023-03-27T02:28:23.000Z,78.52
2023-03-27T02:29:12.000Z,78.49
2023-03-27T02:30:21.000Z,78.67
2023-03-27T02:31:08.000Z,78.33
2023-03-27T02:32:00.000Z,79.27
2023-03-27T02:33:02.000Z,79.88
2023-03-27T02:34:00.000Z,79.73
2023-03-27T02:35:05.000Z,79.93
2023-03-27T02:36:01.000Z,78.36
2023-03-27T02:37:03.000Z,77.37
2023-03-27T02:38:00.000Z,77.96
2023-03-27T02:39:01.000Z,77.50
2023-03-27T02:40:11.000Z,78.11
2023-03-27T02:41:00.000Z,77.94
2023-03-27T02:42:00.000Z,76.49
2023-03-27T02:43:04.000Z,75.50
2023-03-27T02:44:02.000Z,76.35
2023-03-27T02:44:58.000Z,76.38
2023-03-27T02:46:00.000Z,76.61
2023-03-27T02:47:02.000Z,77.04
2023-03-27T02:47:58.000Z,75.34
2023-03-27T02:48:55.000Z,75.25
2023-03-27T02:49:56.000Z,74.53
2023-03-27T02:50:57.000Z,74.43
2023-03-27T02:52:00.000Z,74.17
2023-03-27T02:52:57.000Z,75.28
2023-03-27T02:53:58.000Z,73.23
2023-03-27T02:54:56.000Z,73.78
2023-03-27T02:55:56.000Z,74.84
2023-03-27T02:56:55.000Z,74.55
2023-03-27T02:57:56.000Z,75.00
2023-03-27T02:58:57.000Z,73.90
2023-03-27T02:59:55.000Z,74.06
2023-03-27T03:00:51.000Z,74.54
2023-03-27T03:01:51.000Z,74.59
2023-03-27T03:03:14.000Z,74.18
2023-03-27T03:03:58.000Z,73.48
2023-03-27T03:05:03.000Z,73.85
2023-03-27T03:05:50.000Z,73.41
2023-03-27T03:06:54.000Z,73.89
2023-03-27T03:07:52.000Z,73.15
2023-03-27T03:08:50.000Z,72.48
2023-03-27T03:09:52.000Z,73.47
2023-03-27T03:10:50.000Z,73.60
2023-03-27T03:11:52.000Z,72.92
2023-03-27T03:12:50.000Z,72.96
2023-03-27T03:13:50.000Z,73.34
2023-03-27T03:14:50.000Z,73.68
2023-03-27T03:15:50.000Z,74.17
2023-03-27T03:16:50.000Z,73.48
2023-03-27T03:17:50.000Z,72.83
2023-03-27T03:18:50.000Z,73.13
2023-03-27T03:19:50.000Z,72.96
2023-03-27T03:20:53.000Z,73.62
2023-03-27T03:21:50.000Z,73.63
2023-03-27T03:22:50.000Z,73.66
2023-03-27T03:23:50.000Z,73.54
2023-03-27T03:24:50.000Z,74.13
2023-03-27T03:25:55.000Z,74.13
2023-03-27T03:26:51.000Z,73.81
2023-03-27T03:27:56.000Z,74.22
2023-03-27T03:28:51.000Z,73.63
2023-03-27T03:29:51.000Z,73.58
2023-03-27T03:30:51.000Z,74.53
2023-03-27T03:31:50.000Z,74.22
2023-03-27T03:32:52.000Z,73.33
2023-03-27T03:33:50.000Z,73.78
2023-03-27T03:34:51.000Z,73.77
2023-03-27T03:35:50.000Z,73.60
2023-03-27T03:36:54.000Z,73.68
2023-03-27T03:37:51.000Z,72.99
2023-03-27T03:38:50.000Z,72.76
2023-03-27T03:39:51.000Z,73.45
2023-03-27T03:40:56.000Z,73.61
2023-03-27T03:41:51.000Z,74.00
2023-03-27T03:42:51.000Z,72.97
2023-03-27T03:43:50.000Z,73.87
2023-03-27T03:44:51.000Z,73.29
2023-03-27T03:45:52.000Z,72.98
2023-03-27T03:46:50.000Z,72.61
2023-03-27T03:47:51.000Z,72.78
2023-03-27T03:48:51.000Z,72.74
2023-03-27T03:49:50.000Z,72.88
2023-03-27T03:50:51.000Z,73.56
2023-03-27T03:51:50.000Z,73.71
2023-03-27T03:52:50.000Z,73.15
2023-03-27T03:53:50.000Z,73.44
2023-03-27T03:54:51.000Z,73.88
2023-03-27T03:55:52.000Z,73.47
2023-03-27T03:56:51.000Z,72.89
2023-03-27T03:57:51.000Z,73.51
2023-03-27T03:58:51.000Z,73.03
2023-03-27T03:59:51.000Z,73.78
2023-03-27T04:00:52.000Z,72.39
2023-03-27T04:01:51.000Z,72.97
2023-03-27T04:02:52.000Z,72.48
2023-03-27T04:03:51.000Z,72.66
2023-03-27T04:04:51.000Z,73.06
2023-03-27T04:05:52.000Z,73.20
2023-03-27T04:06:52.000Z,73.10
2023-03-27T04:07:51.000Z,72.82
2023-03-27T04:08:52.000Z,73.52
2023-03-27T04:09:51.000Z,73.55
2023-03-27T04:10:51.000Z,73.32
2023-03-27T04:11:51.000Z,73.19
2023-03-27T04:12:51.000Z,73.55
2023-03-27T04:13:51.000Z,73.31
2023-03-27T04:14:52.000Z,73.18
2023-03-27T04:15:51.000Z,73.88
2023-03-27T04:16:51.000Z,73.08
2023-03-27T04:17:51.000Z,73.55
2023-03-27T04:18:53.000Z,73.97
2023-03-27T04:19:53.000Z,73.69
2023-03-27T04:20:53.000Z,73.34
2023-03-27T04:21:53.000Z,73.66
2023-03-27T04:22:51.000Z,73.08
2023-03-27T04:23:51.000Z,73.37
2023-03-27T04:24:53.000Z,73.37
2023-03-27T04:25:51.000Z,72.94
2023-03-27T04:26:51.000Z,73.20
2023-03-27T04:27:51.000Z,73.46
2023-03-27T04:28:51.000Z,74.00
2023-03-27T04:29:50.000Z,73.11
2023-03-27T04:30:50.000Z,72.93
2023-03-27T04:31:51.000Z,73.43
2023-03-27T04:32:52.000Z,73.64
2023-03-27T04:33:51.000Z,73.48
2023-03-27T04:34:51.000Z,73.55
2023-03-27T04:35:51.000Z,73.38
2023-03-27T04:36:51.000Z,73.13
2023-03-27T04:37:51.000Z,73.43
2023-03-27T04:38:51.000Z,73.91
2023-03-27T04:39:51.000Z,73.93
2023-03-27T04:40:51.000Z,74.02
2023-03-27T04:41:52.000Z,74.22
2023-03-27T04:42:51.000Z,73.72
2023-03-27T04:43:51.000Z,72.97
2023-03-27T04:44:52.000Z,73.24
2023-03-27T04:45:52.000Z,73.79
2023-03-27T04:46:50.000Z,73.87
2023-03-27T04:47:51.000Z,74.25
2023-03-27T04:48:51.000Z,73.50
2023-03-27T04:49:50.000Z,73.34
2023-03-27T04:50:50.000Z,73.68
2023-03-27T04:51:50.000Z,72.91
2023-03-27T04:52:51.000Z,73.42
2023-03-27T04:53:51.000Z,73.31
2023-03-27T04:54:51.000Z,73.64
2023-03-27T04:55:51.000Z,73.06
2023-03-27T04:56:52.000Z,73.66
2023-03-27T04:57:52.000Z,73.08
2023-03-27T04:58:50.000Z,73.64
2023-03-27T04:59:51.000Z,73.62
2023-03-27T05:00:53.000Z,73.27
2023-03-27T05:01:50.000Z,73.66
2023-03-27T05:02:52.000Z,73.25
2023-03-27T05:03:51.000Z,73.38
2023-03-27T05:04:52.000Z,73.54
2023-03-27T05:05:51.000Z,73.75
2023-03-27T05:06:52.000Z,74.24
2023-03-27T05:07:51.000Z,73.27
2023-03-27T05:08:51.000Z,73.35
2023-03-27T05:09:51.000Z,73.73
2023-03-27T05:10:51.000Z,73.96
2023-03-27T05:11:51.000Z,73.45
2023-03-27T05:12:52.000Z,73.11
2023-03-27T05:13:51.000Z,73.22
2023-03-27T05:14:50.000Z,73.34
2023-03-27T05:15:51.000Z,73.34
2023-03-27T05:16:53.000Z,73.08
2023-03-27T05:17:53.000Z,72.81
2023-03-27T05:18:51.000Z,73.06
2023-03-27T05:19:51.000Z,72.57
2023-03-27T05:20:52.000Z,73.39
2023-03-27T05:21:51.000Z,72.97
2023-03-27T05:22:52.000Z,73.03
2023-03-27T05:23:51.000Z,73.16
2023-03-27T05:24:50.000Z,73.55
2023-03-27T05:25:51.000Z,73.90
2023-03-27T05:26:50.000Z,73.98
2023-03-27T05:27:51.000Z,73.65
2023-03-27T05:28:53.000Z,74.01
2023-03-27T05:29:50.000Z,73.18
2023-03-27T05:30:51.000Z,73.62
2023-03-27T05:31:51.000Z,73.69
2023-03-27T05:32:51.000Z,73.23
2023-03-27T05:33:52.000Z,73.40
2023-03-27T05:34:53.000Z,73.86
2023-03-27T05:35:51.000Z,73.21
2023-03-27T05:36:50.000Z,72.98
2023-03-27T05:37:53.000Z,73.26
2023-03-27T05:38:52.000Z,73.57
2023-03-27T05:39:51.000Z,73.26
2023-03-27T05:40:51.000Z,73.46
2023-03-27T05:41:50.000Z,73.41
2023-03-27T05:42:51.000Z,73.84
2023-03-27T05:43:50.000Z,73.39
2023-03-27T05:44:50.000Z,73.71
2023-03-27T05:45:50.000Z,74.20
2023-03-27T05:46:50.000Z,74.39
2023-03-27T05:47:53.000Z,73.66
2023-03-27T05:48:51.000Z,74.38
2023-03-27T05:49:50.000Z,74.36
2023-03-27T05:50:50.000Z,74.42
2023-03-27T05:51:51.000Z,74.38
2023-03-27T05:52:56.000Z,74.32
2023-03-27T05:53:50.000Z,74.21
2023-03-27T05:54:50.000Z,74.56
2023-03-27T05:55:50.000Z,73.94
2023-03-27T05:56:50.000Z,74.28
2023-03-27T05:57:50.000Z,74.03
2023-03-27T05:58:51.000Z,74.29
2023-03-27T05:59:51.000Z,74.22
2023-03-27T06:00:50.000Z,74.78
2023-03-27T06:01:50.000Z,74.52
2023-03-27T06:02:58.000Z,74.58
2023-03-27T06:03:54.000Z,74.33
2023-03-27T06:04:51.000Z,73.96
2023-03-27T06:05:51.000Z,74.21
2023-03-27T06:06:51.000Z,73.60
2023-03-27T06:07:51.000Z,74.07
2023-03-27T06:08:51.000Z,74.35
2023-03-27T06:09:50.000Z,74.16
2023-03-27T06:10:51.000Z,73.81
2023-03-27T06:11:51.000Z,74.15
2023-03-27T06:13:01.000Z,74.39
2023-03-27T06:13:50.000Z,74.45
2023-03-27T06:14:50.000Z,74.21
2023-03-27T06:15:53.000Z,73.95
2023-03-27T06:16:51.000Z,74.54
2023-03-27T06:17:51.000Z,74.47
2023-03-27T06:18:51.000Z,75.55
2023-03-27T06:19:51.000Z,75.06
2023-03-27T06:20:50.000Z,74.18
2023-03-27T06:21:50.000Z,73.31
2023-03-27T06:22:55.000Z,73.49
2023-03-27T06:23:51.000Z,73.98
2023-03-27T06:24:53.000Z,73.64
2023-03-27T06:25:52.000Z,73.04
2023-03-27T06:26:51.000Z,73.40
2023-03-27T06:27:51.000Z,73.47
2023-03-27T06:28:50.000Z,72.77
2023-03-27T06:29:50.000Z,72.88
2023-03-27T06:30:50.000Z,72.66
2023-03-27T06:31:50.000Z,73.08
2023-03-27T06:32:52.000Z,73.19
2023-03-27T06:33:50.000Z,73.31
2023-03-27T06:34:50.000Z,73.31
2023-03-27T06:35:50.000Z,72.87
2023-03-27T06:36:50.000Z,73.35
2023-03-27T06:37:50.000Z,73.12
2023-03-27T06:38:50.000Z,72.44
2023-03-27T06:39:50.000Z,71.84
2023-03-27T06:40:50.000Z,72.93
2023-03-27T06:41:50.000Z,73.27
2023-03-27T06:42:52.000Z,72.88
2023-03-27T06:43:50.000Z,73.03
2023-03-27T06:44:50.000Z,72.50
2023-03-27T06:45:50.000Z,72.57
2023-03-27T06:46:50.000Z,73.02
2023-03-27T06:47:55.000Z,72.51
2023-03-27T06:48:50.000Z,72.00
2023-03-27T06:49:50.000Z,72.21
2023-03-27T06:50:50.000Z,72.05
2023-03-27T06:51:50.000Z,72.32
2023-03-27T06:52:50.000Z,72.29
2023-03-27T06:53:50.000Z,72.50
2023-03-27T06:54:50.000Z,71.99
2023-03-27T06:55:50.000Z,72.23
2023-03-27T06:56:50.000Z,72.38
2023-03-27T06:57:53.000Z,72.04
2023-03-27T06:58:50.000Z,71.70
2023-03-27T06:59:50.000Z,71.60
2023-03-27T07:00:50.000Z,71.67
2023-03-27T07:01:50.000Z,71.27
2023-03-27T07:02:58.000Z,70.52
2023-03-27T07:03:50.000Z,70.98
2023-03-27T07:04:50.000Z,71.08
2023-03-27T07:05:50.000Z,71.53
2023-03-27T07:06:50.000Z,72.29
2023-03-27T07:07:51.000Z,71.53
2023-03-27T07:08:50.000Z,72.23
2023-03-27T07:09:50.000Z,71.24
2023-03-27T07:10:53.000Z,71.18
2023-03-27T07:11:50.000Z,70.95
2023-03-27T07:12:51.000Z,71.38
2023-03-27T07:13:50.000Z,71.57
2023-03-27T07:14:50.000Z,72.01
2023-03-27T07:15:50.000Z,72.03
2023-03-27T07:16:50.000Z,72.64
2023-03-27T07:17:55.000Z,72.81
2023-03-27T07:18:50.000Z,72.73
2023-03-27T07:19:50.000Z,72.43
2023-03-27T07:20:50.000Z,72.03
2023-03-27T07:21:50.000Z,72.91
2023-03-27T07:22:50.000Z,72.22
2023-03-27T07:23:51.000Z,72.37
2023-03-27T07:24:50.000Z,72.51
2023-03-27T07:25:55.000Z,72.36
2023-03-27T07:26:50.000Z,71.65
2023-03-27T07:27:50.000Z,71.39
2023-03-27T07:28:50.000Z,71.62
2023-03-27T07:29:50.000Z,71.69
2023-03-27T07:30:49.000Z,71.83
2023-03-27T07:31:50.000Z,70.70
2023-03-27T07:32:49.000Z,70.80
2023-03-27T07:33:50.000Z,71.70
2023-03-27T07:34:50.000Z,71.17
2023-03-27T07:35:49.000Z,71.18
2023-03-27T07:36:49.000Z,70.94
2023-03-27T07:37:52.000Z,71.37
2023-03-27T07:38:49.000Z,72.10
2023-03-27T07:39:49.000Z,72.09
2023-03-27T07:40:49.000Z,71.29
2023-03-27T07:41:50.000Z,69.53
2023-03-27T07:42:50.000Z,70.45
2023-03-27T07:43:50.000Z,70.67
2023-03-27T07:44:50.000Z,69.97
2023-03-27T07:45:50.000Z,69.43
2023-03-27T07:46:52.000Z,69.98
2023-03-27T07:47:50.000Z,69.19
2023-03-27T07:48:49.000Z,68.08
2023-03-27T07:49:50.000Z,68.28
2023-03-27T07:50:50.000Z,68.45
2023-03-27T07:51:51.000Z,67.82
2023-03-27T07:52:49.000Z,68.25
2023-03-27T07:53:54.000Z,67.73
2023-03-27T07:54:49.000Z,68.63
2023-03-27T07:55:51.000Z,68.39
2023-03-27T07:56:49.000Z,68.15
2023-03-27T07:57:49.000Z,66.53
2023-03-27T07:58:50.000Z,67.33
2023-03-27T07:59:51.000Z,67.97
2023-03-27T08:00:51.000Z,68.57
2023-03-27T08:01:50.000Z,68.62
2023-03-27T08:02:50.000Z,68.66
2023-03-27T08:03:51.000Z,66.71
2023-03-27T08:04:54.000Z,66.98
2023-03-27T08:05:55.000Z,67.22
2023-03-27T08:06:53.000Z,67.73
2023-03-27T08:07:50.000Z,67.37
2023-03-27T08:08:50.000Z,67.97
2023-03-27T08:09:56.000Z,66.85
2023-03-27T08:10:53.000Z,67.45
2023-03-27T08:11:50.000Z,66.32
2023-03-27T08:12:50.000Z,66.10
2023-03-27T08:13:50.000Z,66.34
2023-03-27T08:14:53.000Z,66.38
2023-03-27T08:15:50.000Z,67.02
2023-03-27T08:16:50.000Z,65.82
2023-03-27T08:17:53.000Z,64.87
2023-03-27T08:18:50.000Z,65.83
2023-03-27T08:19:51.000Z,65.38
2023-03-27T08:20:55.000Z,65.33
2023-03-27T08:21:50.000Z,65.35
2023-03-27T08:22:51.000Z,65.73
2023-03-27T08:23:50.000Z,65.97
2023-03-27T08:24:50.000Z,66.90
2023-03-27T08:25:50.000Z,65.73
2023-03-27T08:26:50.000Z,66.36
2023-03-27T08:27:51.000Z,66.24
2023-03-27T08:28:53.000Z,65.84
2023-03-27T08:29:50.000Z,65.34
2023-03-27T08:30:50.000Z,65.09
2023-03-27T08:31:50.000Z,66.17
2023-03-27T08:32:50.000Z,66.11
2023-03-27T08:33:50.000Z,65.90
2023-03-27T08:34:50.000Z,65.15
2023-03-27T08:35:50.000Z,64.91
2023-03-27T08:36:51.000Z,63.85
2023-03-27T08:37:51.000Z,64.37
2023-03-27T08:38:53.000Z,64.17
2023-03-27T08:39:50.000Z,64.28
2023-03-27T08:40:54.000Z,64.91
2023-03-27T08:41:53.000Z,65.01
2023-03-27T08:42:53.000Z,64.29
2023-03-27T08:43:51.000Z,63.75
2023-03-27T08:44:53.000Z,64.44
2023-03-27T08:45:58.000Z,63.65
2023-03-27T08:46:58.000Z,63.89
2023-03-27T08:47:58.000Z,64.18
2023-03-27T08:49:04.000Z,64.66
2023-03-27T08:49:56.000Z,64.53
2023-03-27T08:50:55.000Z,62.05
2023-03-27T08:51:57.000Z,63.18
2023-03-27T08:52:51.000Z,62.66
2023-03-27T08:53:58.000Z,63.21
2023-03-27T08:54:59.000Z,63.07
2023-03-27T08:55:51.000Z,63.51
2023-03-27T08:56:51.000Z,63.71
2023-03-27T08:57:51.000Z,63.59
2023-03-27T08:58:51.000Z,62.34
2023-03-27T08:59:56.000Z,62.47
2023-03-27T09:01:13.000Z,61.11
2023-03-27T09:02:01.000Z,61.45
2023-03-27T09:02:56.000Z,62.01
2023-03-27T09:04:01.000Z,61.69
2023-03-27T09:05:05.000Z,61.12
2023-03-27T09:06:00.000Z,61.24
2023-03-27T09:07:00.000Z,62.23
2023-03-27T09:08:23.000Z,61.69
2023-03-27T09:09:10.000Z,60.65
2023-03-27T09:09:59.000Z,60.96
2023-03-27T09:11:03.000Z,60.10
2023-03-27T09:12:05.000Z,61.23
2023-03-27T09:13:00.000Z,59.80
2023-03-27T09:13:50.000Z,59.99
2023-03-27T09:15:07.000Z,60.36
2023-03-27T09:16:02.000Z,60.52
2023-03-27T09:16:53.000Z,58.84
2023-03-27T09:18:05.000Z,56.82
2023-03-27T09:19:00.000Z,57.72
2023-03-27T09:19:59.000Z,59.45
2023-03-27T09:20:54.000Z,59.81
2023-03-27T09:22:00.000Z,59.13
2023-03-27T09:23:11.000Z,60.39
2023-03-27T09:23:57.000Z,60.41
2023-03-27T09:24:53.000Z,58.51
2023-03-27T09:25:54.000Z,58.77
2023-03-27T09:26:52.000Z,59.12
2023-03-27T09:27:51.000Z,58.88
2023-03-27T09:28:58.000Z,60.03
2023-03-27T09:30:10.000Z,59.71
2023-03-27T09:30:51.000Z,59.64
2023-03-27T09:31:55.000Z,58.31
2023-03-27T09:32:56.000Z,58.11
2023-03-27T09:33:51.000Z,58.05
2023-03-27T09:34:50.000Z,57.13
2023-03-27T09:35:50.000Z,57.15
2023-03-27T09:36:51.000Z,57.60
2023-03-27T09:37:57.000Z,57.50
2023-03-27T09:38:52.000Z,58.06
2023-03-27T09:39:51.000Z,57.69
2023-03-27T09:40:57.000Z,58.52
2023-03-27T09:41:56.000Z,57.70
2023-03-27T09:42:52.000Z,58.32
2023-03-27T09:43:59.000Z,58.29
2023-03-27T09:44:55.000Z,58.34
2023-03-27T09:45:52.000Z,58.25
2023-03-27T09:47:00.000Z,58.63
2023-03-27T09:48:00.000Z,57.98
2023-03-27T09:49:02.000Z,57.92
2023-03-27T09:50:00.000Z,56.01
2023-03-27T09:50:50.000Z,58.32
2023-03-27T09:51:55.000Z,56.70
2023-03-27T09:52:51.000Z,55.45
2023-03-27T09:53:57.000Z,56.97
2023-03-27T09:54:53.000Z,56.26
2023-03-27T09:55:57.000Z,57.93
2023-03-27T09:56:53.000Z,57.12
2023-03-27T09:57:52.000Z,55.56
2023-03-27T09:58:51.000Z,56.33
2023-03-27T09:59:57.000Z,55.81
2023-03-27T10:01:15.000Z,54.95
2023-03-27T10:01:54.000Z,54.46
2023-03-27T10:02:58.000Z,54.73
2023-03-27T10:03:56.000Z,54.87
2023-03-27T10:04:56.000Z,55.39
2023-03-27T10:06:04.000Z,55.57
2023-03-27T10:07:00.000Z,54.64
2023-03-27T10:07:50.000Z,56.63
2023-03-27T10:08:51.000Z,55.18
2023-03-27T10:10:00.000Z,55.77
2023-03-27T10:10:55.000Z,54.98
2023-03-27T10:11:59.000Z,56.24
2023-03-27T10:12:55.000Z,56.81
2023-03-27T10:13:50.000Z,56.70
2023-03-27T10:14:50.000Z,57.65
2023-03-27T10:15:57.000Z,56.65
2023-03-27T10:16:50.000Z,57.04
2023-03-27T10:17:50.000Z,57.49
2023-03-27T10:18:53.000Z,57.16
2023-03-27T10:19:56.000Z,57.94
2023-03-27T10:20:52.000Z,57.92
2023-03-27T10:21:52.000Z,58.12
2023-03-27T10:22:55.000Z,57.71
2023-03-27T10:23:58.000Z,55.86
2023-03-27T10:24:51.000Z,57.10
2023-03-27T10:25:55.000Z,58.27
2023-03-27T10:26:51.000Z,57.92
2023-03-27T10:27:51.000Z,58.56
2023-03-27T10:28:51.000Z,57.17
2023-03-27T10:29:50.000Z,57.00
2023-03-27T10:30:56.000Z,56.05
2023-03-27T10:31:56.000Z,55.98
2023-03-27T10:32:51.000Z,55.41
2023-03-27T10:33:49.000Z,56.67
2023-03-27T10:34:54.000Z,57.93
2023-03-27T10:35:50.000Z,58.14
2023-03-27T10:36:51.000Z,57.82
2023-03-27T10:37:49.000Z,58.57
2023-03-27T10:38:56.000Z,58.37
2023-03-27T10:39:50.000Z,58.50
2023-03-27T10:40:50.000Z,58.18
2023-03-27T10:41:50.000Z,58.25
2023-03-27T10:42:53.000Z,58.47
2023-03-27T10:43:50.000Z,58.82
2023-03-27T10:44:53.000Z,58.57
2023-03-27T10:45:55.000Z,58.60
2023-03-27T10:46:51.000Z,58.65
2023-03-27T10:47:52.000Z,59.65
2023-03-27T10:49:22.000Z,60.96
2023-03-27T10:49:59.000Z,60.04
2023-03-27T10:50:54.000Z,60.19
2023-03-27T10:52:01.000Z,59.13
2023-03-27T10:53:10.000Z,58.60
2023-03-27T10:53:55.000Z,57.87
2023-03-27T10:55:14.000Z,57.27
2023-03-27T10:56:00.000Z,57.59
2023-03-27T10:56:58.000Z,57.21
2023-03-27T10:57:57.000Z,56.64
2023-03-27T10:58:59.000Z,55.95
2023-03-27T10:59:58.000Z,57.21
2023-03-27T11:01:01.000Z,57.91
2023-03-27T11:01:58.000Z,56.28
2023-03-27T11:03:10.000Z,56.70
2023-03-27T11:04:10.000Z,56.56
2023-03-27T11:04:56.000Z,56.38
2023-03-27T11:05:53.000Z,57.54
2023-03-27T11:06:55.000Z,57.55
2023-03-27T11:08:00.000Z,58.36
2023-03-27T11:08:57.000Z,58.26
2023-03-27T11:09:56.000Z,58.80
2023-03-27T11:10:55.000Z,58.11
2023-03-27T11:11:59.000Z,57.27
2023-03-27T11:12:59.000Z,57.58
2023-03-27T11:13:52.000Z,58.27
2023-03-27T11:15:09.000Z,57.53
2023-03-27T11:16:00.000Z,57.96
2023-03-27T11:16:57.000Z,57.75
2023-03-27T11:17:59.000Z,58.34
2023-03-27T11:18:56.000Z,58.83
2023-03-27T11:19:57.000Z,58.65
2023-03-27T11:20:58.000Z,56.81
2023-03-27T11:21:56.000Z,57.72
2023-03-27T11:23:02.000Z,57.72
2023-03-27T11:23:58.000Z,58.14
2023-03-27T11:24:58.000Z,56.56
2023-03-27T11:25:51.000Z,57.25
2023-03-27T11:27:03.000Z,58.35
2023-03-27T11:28:00.000Z,57.33
2023-03-27T11:29:00.000Z,57.79
2023-03-27T11:30:13.000Z,57.82
2023-03-27T11:30:56.000Z,58.02
2023-03-27T11:31:51.000Z,58.13
2023-03-27T11:33:01.000Z,58.29
2023-03-27T11:34:04.000Z,58.07
2023-03-27T11:35:09.000Z,57.42
2023-03-27T11:36:10.000Z,58.56
2023-03-27T11:36:59.000Z,58.52
2023-03-27T11:37:55.000Z,57.96
2023-03-27T11:39:03.000Z,58.57
2023-03-27T11:40:01.000Z,55.73
2023-03-27T11:40:50.000Z,55.91
2023-03-27T11:41:56.000Z,55.19
2023-03-27T11:42:50.000Z,54.61
2023-03-27T11:43:50.000Z,55.38
2023-03-27T11:44:50.000Z,55.42
2023-03-27T11:46:05.000Z,55.28
2023-03-27T11:47:00.000Z,55.38
2023-03-27T11:48:23.000Z,55.59
2023-03-27T11:49:18.000Z,56.43
2023-03-27T11:50:06.000Z,56.22
2023-03-27T11:51:02.000Z,56.95
2023-03-27T11:52:03.000Z,56.40
2023-03-27T11:53:03.000Z,57.01
2023-03-27T11:54:05.000Z,58.18
2023-03-27T11:55:02.000Z,58.64
2023-03-27T11:56:10.000Z,59.40
2023-03-27T11:56:53.000Z,59.99
2023-03-27T11:58:07.000Z,61.18
2023-03-27T11:59:01.000Z,62.77
2023-03-27T12:00:13.000Z,64.49
2023-03-27T12:01:01.000Z,65.51
2023-03-27T12:02:01.000Z,66.18
2023-03-27T12:03:01.000Z,66.76
2023-03-27T12:04:01.000Z,64.80
2023-03-27T12:05:10.000Z,63.58
2023-03-27T12:06:01.000Z,63.47
2023-03-27T12:06:59.000Z,63.75
2023-03-27T12:08:00.000Z,63.85
2023-03-27T12:09:10.000Z,64.28
2023-03-27T12:09:58.000Z,64.75
2023-03-27T12:10:52.000Z,65.14
2023-03-27T12:12:09.000Z,65.73
2023-03-27T12:13:13.000Z,66.08
2023-03-27T12:13:59.000Z,65.87
2023-03-27T12:15:10.000Z,66.16
2023-03-27T12:16:00.000Z,65.87
2023-03-27T12:17:11.000Z,65.28
2023-03-27T12:17:59.000Z,64.50
2023-03-27T12:19:12.000Z,64.75
2023-03-27T12:20:12.000Z,64.31
2023-03-27T12:21:11.000Z,64.20
2023-03-27T12:22:04.000Z,64.54
2023-03-27T12:23:05.000Z,64.45
2023-03-27T12:24:00.000Z,63.34
2023-03-27T12:25:26.000Z,64.37
2023-03-27T12:26:13.000Z,64.03
2023-03-27T12:27:12.000Z,62.84
2023-03-27T12:28:20.000Z,62.77
2023-03-27T12:29:10.000Z,62.56
2023-03-27T12:30:00.000Z,63.29
2023-03-27T12:31:04.000Z,63.43
2023-03-27T12:32:01.000Z,63.48
2023-03-27T12:32:59.000Z,64.20
2023-03-27T12:33:59.000Z,64.30
2023-03-27T12:34:57.000Z,64.45
2023-03-27T12:35:55.000Z,64.68
2023-03-27T12:36:51.000Z,64.78
2023-03-27T12:38:13.000Z,65.44
2023-03-27T12:38:51.000Z,65.62
2023-03-27T12:39:54.000Z,64.82
2023-03-27T12:41:17.000Z,62.69
2023-03-27T12:41:50.000Z,61.04
2023-03-27T12:42:52.000Z,60.72
2023-03-27T12:43:55.000Z,61.77
2023-03-27T12:45:19.000Z,61.68
2023-03-27T12:45:59.000Z,62.02
2023-03-27T12:47:00.000Z,62.03
2023-03-27T12:48:02.000Z,61.98
2023-03-27T12:49:01.000Z,60.34
2023-03-27T12:49:56.000Z,59.64
2023-03-27T12:50:55.000Z,59.55
2023-03-27T12:52:07.000Z,60.40
2023-03-27T12:52:51.000Z,55.17